Featured Flight

MET1146 - Detroit to Portland

Boeing 737-200
711MT
4 hrs 00 mins
1695 nm
Scheduled - M

Bid/PiRep Status

Bid was submitted on December 28th, 2016 13:12 UTC.
PiRep # 74496: Approved by Dave Nichols on December 30th, 2016 7:55 UTC

Departure

Departing from
Detroit (DTW)
Departure gate
Scheduled Departure
GMT 1000
Local 0600
METAR KDTW 191653Z 28015G24KT 9SM -SN SCT040 OVC050 02/M02 A2985 RMK AO2 SNB07E24B47 SLP107 P0000 T00221022 $
TAF KDTW 191523Z 1915/2018 28013G21KT P6SM SCT025 BKN045 TEMPO 1915/1919 5SM -SHSN BR BKN035 FM200000 27010KT P6SM BKN040 FM200600 24008KT P6SM SCT060 SCT080 BKN100

Route Map

Planning Resources

BERYS Q440 HUFFR EP J70 ABR J90 HLN FINUT BRUKK
DUNKS J70 ABR J32 DPR J16 PDT JKNOW HHOOD
Route:
OFP Layout:
Units:
Detailed Navlog:
ETOPS Planning:
Plan Stepclimbs:
Runway Analysis:
Include NOTAMS:
FIR NOTAMS:
Flight Maps:

Popularity

Hub Current Bids PiReps this month Total PiReps
KLAX 0 0 0
KBOS 0 0 0
KDFW 0 0 0